createdAt,value
2023-01-19T00:01:16.946Z,8.60
2023-01-19T00:03:43.361Z,7.50
2023-01-19T00:06:10.129Z,7.13
2023-01-19T00:08:37.107Z,7.70
2023-01-19T00:11:03.916Z,12.25
2023-01-19T00:13:30.404Z,9.43
2023-01-19T00:15:57.011Z,4.50
2023-01-19T00:18:23.834Z,6.13
2023-01-19T00:20:50.203Z,14.25
2023-01-19T00:23:16.828Z,16.70
2023-01-19T00:25:43.534Z,7.55
2023-01-19T00:28:15.293Z,10.00
2023-01-19T00:30:42.529Z,9.25
2023-01-19T00:33:10.159Z,6.25
2023-01-19T00:35:36.692Z,6.75
2023-01-19T00:38:03.695Z,4.78
2023-01-19T00:40:30.107Z,3.47
2023-01-19T00:42:56.553Z,6.22
2023-01-19T00:45:24.283Z,4.55
2023-01-19T00:47:57.483Z,3.50
2023-01-19T00:50:25.190Z,6.40
2023-01-19T00:52:53.250Z,4.38
2023-01-19T00:55:20.195Z,5.10
2023-01-19T00:57:46.778Z,3.65
2023-01-19T01:00:16.832Z,5.82
2023-01-19T01:02:44.666Z,3.63
2023-01-19T01:05:12.427Z,4.97
2023-01-19T01:07:44.606Z,5.22
2023-01-19T01:10:20.060Z,8.57
2023-01-19T01:12:55.132Z,5.93
2023-01-19T01:15:26.261Z,3.28
2023-01-19T01:17:53.127Z,3.67
2023-01-19T01:20:22.807Z,6.00
2023-01-19T01:22:52.666Z,4.53
2023-01-19T01:25:22.571Z,6.85
2023-01-19T01:27:49.596Z,6.55
2023-01-19T01:30:16.558Z,5.35
2023-01-19T01:32:43.119Z,3.40
2023-01-19T01:35:10.179Z,4.03
2023-01-19T01:37:37.755Z,6.95
2023-01-19T01:40:05.996Z,2.83
2023-01-19T01:42:33.720Z,2.88
2023-01-19T01:45:07.457Z,1.52
2023-01-19T01:47:47.135Z,3.58
2023-01-19T01:50:23.411Z,4.30
2023-01-19T01:53:06.862Z,2.92
2023-01-19T01:55:39.858Z,3.97
2023-01-19T01:58:10.340Z,3.90
2023-01-19T02:00:57.720Z,3.05
2023-01-19T02:03:25.575Z,3.65
2023-01-19T02:05:57.559Z,3.33
2023-01-19T02:09:02.629Z,3.53
2023-01-19T02:11:49.374Z,2.47
2023-01-19T02:14:15.782Z,3.15
2023-01-19T02:16:42.549Z,3.78
2023-01-19T02:19:15.921Z,1.13
2023-01-19T02:21:52.819Z,4.60
2023-01-19T02:24:19.781Z,1.80
2023-01-19T02:26:48.125Z,1.83
2023-01-19T02:29:18.066Z,1.77
2023-01-19T02:31:45.426Z,1.60
2023-01-19T02:34:15.265Z,1.70
2023-01-19T02:36:52.184Z,1.20
2023-01-19T02:39:22.428Z,2.08
2023-01-19T02:41:57.265Z,2.65
2023-01-19T02:44:25.212Z,1.10
2023-01-19T02:46:54.586Z,1.35
2023-01-19T02:49:21.003Z,5.00
2023-01-19T02:51:47.825Z,1.20
2023-01-19T02:54:33.541Z,2.08
2023-01-19T02:57:14.236Z,5.03
2023-01-19T03:00:09.711Z,1.10
2023-01-19T03:02:51.493Z,1.88
2023-01-19T03:05:26.607Z,2.00
2023-01-19T03:08:15.745Z,0.40
2023-01-19T03:11:08.003Z,4.30
2023-01-19T03:13:45.626Z,2.05
2023-01-19T03:16:35.764Z,0.73
2023-01-19T03:19:11.604Z,2.38
2023-01-19T03:21:42.766Z,1.10
2023-01-19T03:24:11.985Z,0.90
2023-01-19T03:26:44.362Z,2.42
2023-01-19T03:29:13.862Z,0.40
2023-01-19T03:31:42.936Z,2.58
2023-01-19T03:34:12.524Z,1.13
2023-01-19T03:36:54.012Z,1.00
2023-01-19T03:39:26.579Z,5.35
2023-01-19T03:41:57.920Z,7.93
2023-01-19T03:44:27.573Z,1.90
2023-01-19T03:46:55.278Z,1.05
2023-01-19T03:49:21.903Z,1.02
2023-01-19T03:51:48.436Z,3.90
2023-01-19T03:54:14.919Z,2.55
2023-01-19T03:56:41.328Z,5.72
2023-01-19T03:59:07.913Z,2.55
2023-01-19T04:01:34.433Z,4.05
2023-01-19T04:04:01.033Z,0.75
2023-01-19T04:06:28.087Z,1.83
2023-01-19T04:08:54.764Z,3.75
2023-01-19T04:11:21.244Z,2.13
2023-01-19T04:13:47.933Z,2.17
2023-01-19T04:16:19.848Z,2.88
2023-01-19T04:18:46.814Z,2.05
2023-01-19T04:21:13.223Z,1.63
2023-01-19T04:23:39.741Z,1.60
2023-01-19T04:26:07.678Z,1.42
2023-01-19T04:28:37.006Z,1.08
2023-01-19T04:31:04.987Z,1.45
2023-01-19T04:33:31.630Z,1.45
2023-01-19T04:35:58.527Z,0.60
2023-01-19T04:38:25.698Z,2.75
2023-01-19T04:40:53.675Z,1.20
2023-01-19T04:43:21.684Z,0.45
2023-01-19T04:45:49.086Z,1.42
2023-01-19T04:48:16.595Z,1.60
2023-01-19T04:50:43.080Z,2.33
2023-01-19T04:53:10.885Z,3.88
2023-01-19T04:55:38.731Z,2.45
2023-01-19T04:58:05.444Z,1.63
2023-01-19T05:00:31.885Z,1.20
2023-01-19T05:02:58.543Z,2.35
2023-01-19T05:05:25.104Z,2.15
2023-01-19T05:07:51.534Z,1.60
2023-01-19T05:10:18.038Z,2.00
2023-01-19T05:12:44.487Z,0.98
2023-01-19T05:15:11.207Z,1.10
2023-01-19T05:17:38.015Z,3.22
2023-01-19T05:20:05.237Z,2.97
2023-01-19T05:22:31.978Z,1.83
2023-01-19T05:24:58.606Z,0.82
2023-01-19T05:27:25.100Z,1.52
2023-01-19T05:29:51.923Z,1.00
2023-01-19T05:32:18.405Z,4.25
2023-01-19T05:34:44.785Z,4.65
2023-01-19T05:37:11.523Z,3.25
2023-01-19T05:39:37.943Z,7.45
2023-01-19T05:42:04.494Z,1.45
2023-01-19T05:44:30.921Z,1.95
2023-01-19T05:46:57.559Z,6.70
2023-01-19T05:49:24.009Z,1.17
2023-01-19T05:51:50.387Z,7.30
2023-01-19T05:54:16.846Z,1.42
2023-01-19T05:56:43.782Z,4.60
2023-01-19T05:59:10.619Z,4.85
2023-01-19T06:01:39.813Z,1.75
2023-01-19T06:04:06.516Z,4.32
2023-01-19T06:06:32.919Z,2.75
2023-01-19T06:08:59.360Z,3.05
2023-01-19T06:11:26.159Z,2.75
2023-01-19T06:13:52.859Z,1.48
2023-01-19T06:16:19.449Z,3.30
2023-01-19T06:18:46.156Z,2.60
2023-01-19T06:21:14.270Z,7.13
2023-01-19T06:23:40.957Z,1.80
2023-01-19T06:26:07.638Z,4.25
2023-01-19T06:28:34.197Z,6.57
2023-01-19T06:31:01.007Z,0.98
2023-01-19T06:33:27.999Z,4.07
2023-01-19T06:35:55.410Z,1.33
2023-01-19T06:38:22.150Z,9.98
2023-01-19T06:40:58.440Z,8.73
2023-01-19T06:43:26.412Z,1.48
2023-01-19T06:45:53.015Z,7.10
2023-01-19T06:48:19.894Z,2.05
2023-01-19T06:50:46.649Z,4.10
2023-01-19T06:53:14.144Z,3.40
2023-01-19T06:55:40.577Z,4.13
2023-01-19T06:58:07.225Z,0.80
2023-01-19T07:00:33.688Z,4.28
2023-01-19T07:03:00.587Z,3.20
2023-01-19T07:05:27.563Z,5.00
2023-01-19T07:07:55.982Z,1.55
2023-01-19T07:10:23.945Z,6.03
2023-01-19T07:12:50.669Z,5.45
2023-01-19T07:15:19.673Z,6.07
2023-01-19T07:17:46.180Z,3.75
2023-01-19T07:20:14.230Z,3.50
2023-01-19T07:22:41.938Z,3.80
2023-01-19T07:25:08.740Z,4.90
2023-01-19T07:27:35.268Z,8.30
2023-01-19T07:30:01.931Z,3.45
2023-01-19T07:32:29.109Z,6.43
2023-01-19T07:34:55.664Z,1.88
2023-01-19T07:37:22.371Z,4.22
2023-01-19T07:39:48.845Z,5.15
2023-01-19T07:42:15.304Z,1.73
2023-01-19T07:44:41.725Z,4.95
2023-01-19T07:47:11.079Z,4.25
2023-01-19T07:49:37.451Z,2.42
2023-01-19T07:52:04.082Z,2.40
2023-01-19T07:54:30.510Z,5.47
2023-01-19T07:56:57.120Z,3.55
2023-01-19T07:59:23.594Z,4.95
2023-01-19T08:01:50.119Z,5.60
2023-01-19T08:04:19.009Z,3.42
2023-01-19T08:06:46.696Z,5.93
2023-01-19T08:09:13.539Z,8.88
2023-01-19T08:11:40.279Z,3.40
2023-01-19T08:14:08.041Z,3.10
2023-01-19T08:16:35.527Z,3.05
2023-01-19T08:19:02.470Z,4.72
2023-01-19T08:21:28.924Z,6.43
2023-01-19T08:23:57.220Z,5.15
2023-01-19T08:26:31.635Z,4.47
2023-01-19T08:29:00.384Z,5.60
2023-01-19T08:31:27.095Z,7.32
2023-01-19T08:33:53.797Z,7.20
2023-01-19T08:36:22.504Z,3.85
2023-01-19T08:38:48.945Z,6.88
2023-01-19T08:41:16.871Z,2.65
2023-01-19T08:43:44.577Z,6.28
2023-01-19T08:46:11.470Z,2.65
2023-01-19T08:48:39.845Z,7.07
2023-01-19T08:51:06.586Z,9.18
2023-01-19T08:53:33.023Z,9.27
2023-01-19T08:56:02.435Z,8.30
2023-01-19T08:58:29.181Z,8.15
2023-01-19T09:00:56.098Z,4.20
2023-01-19T09:03:22.910Z,10.10
2023-01-19T09:05:50.375Z,9.90
2023-01-19T09:08:17.221Z,12.00
2023-01-19T09:38:24.885Z,4.82
2023-01-19T09:40:54.353Z,5.38
2023-01-19T09:43:34.811Z,9.00
2023-01-19T09:46:22.769Z,8.45
2023-01-19T09:49:01.361Z,1.52
2023-01-19T09:51:33.662Z,4.20
2023-01-19T09:54:13.369Z,4.22
2023-01-19T09:56:40.233Z,2.08
2023-01-19T09:59:28.745Z,3.35
2023-01-19T10:02:22.184Z,3.88
2023-01-19T10:04:54.608Z,7.30
2023-01-19T10:07:21.055Z,4.25
2023-01-19T10:10:19.895Z,3.67
2023-01-19T10:13:14.445Z,2.60
2023-01-19T10:15:45.169Z,2.47
2023-01-19T10:20:45.271Z,2.70
2023-01-19T10:23:42.987Z,5.13
2023-01-19T10:26:27.998Z,4.05
2023-01-19T10:29:01.597Z,4.10
2023-01-19T10:31:28.159Z,2.53
2023-01-19T10:33:54.773Z,3.63
2023-01-19T10:36:39.763Z,1.85
2023-01-19T10:39:07.244Z,5.13
2023-01-19T10:41:48.902Z,4.55
2023-01-19T10:44:34.813Z,3.88
2023-01-19T10:47:02.210Z,2.45
2023-01-19T10:49:34.941Z,4.45
2023-01-19T10:52:02.820Z,8.52
2023-01-19T10:54:31.317Z,3.67
2023-01-19T10:57:01.182Z,2.38
2023-01-19T10:59:46.536Z,1.45
2023-01-19T11:02:19.325Z,4.85
2023-01-19T11:04:50.139Z,3.75
2023-01-19T11:07:26.664Z,2.72
2023-01-19T11:10:11.091Z,2.30
2023-01-19T11:12:43.298Z,2.47
2023-01-19T11:15:21.252Z,2.70
2023-01-19T11:17:51.832Z,1.20
2023-01-19T11:23:05.101Z,1.95
2023-01-19T11:25:34.076Z,3.05
2023-01-19T11:28:01.001Z,3.50
2023-01-19T11:30:27.923Z,2.35
2023-01-19T11:32:56.200Z,3.95
2023-01-19T11:35:37.966Z,3.20
2023-01-19T11:38:13.346Z,4.78
2023-01-19T11:40:41.847Z,5.65
2023-01-19T11:43:12.992Z,2.38
2023-01-19T11:45:39.775Z,2.50
2023-01-19T11:48:07.363Z,4.45
2023-01-19T11:50:41.449Z,1.52
2023-01-19T11:53:22.951Z,1.65
2023-01-19T11:55:53.823Z,5.38
2023-01-19T11:58:20.875Z,5.03
2023-01-19T12:01:00.528Z,4.53
2023-01-19T12:03:34.597Z,6.07
2023-01-19T12:06:06.907Z,2.67
2023-01-19T12:08:39.423Z,4.45
2023-01-19T12:11:09.541Z,3.83
2023-01-19T12:13:36.375Z,3.55
2023-01-19T12:16:10.769Z,0.82
2023-01-19T12:18:43.774Z,3.10
2023-01-19T12:21:10.392Z,3.25
2023-01-19T12:23:46.957Z,1.25
2023-01-19T12:26:16.336Z,1.52
2023-01-19T12:28:47.100Z,1.33
2023-01-19T12:31:22.259Z,6.15
2023-01-19T12:33:49.275Z,1.80
2023-01-19T12:36:33.133Z,1.13
2023-01-19T12:39:13.900Z,4.65
2023-01-19T12:41:41.400Z,1.85
2023-01-19T12:44:11.049Z,2.35
2023-01-19T12:46:46.932Z,3.33
2023-01-19T12:49:32.095Z,2.28
2023-01-19T12:52:17.286Z,1.20
2023-01-19T12:54:55.170Z,4.47
2023-01-19T12:57:35.877Z,3.13
2023-01-19T13:00:27.209Z,1.55
2023-01-19T13:03:18.395Z,1.20
2023-01-19T13:05:44.830Z,1.67
2023-01-19T13:08:14.135Z,3.55
2023-01-19T13:11:14.673Z,1.50
2023-01-19T13:13:50.394Z,2.22
2023-01-19T13:16:20.100Z,2.08
2023-01-19T13:18:54.685Z,2.47
2023-01-19T13:21:34.988Z,5.80
2023-01-19T13:24:06.290Z,4.07
2023-01-19T13:26:39.928Z,1.25
2023-01-19T13:29:33.951Z,1.75
2023-01-19T13:32:24.088Z,1.48
2023-01-19T13:34:59.199Z,3.78
2023-01-19T13:37:42.942Z,2.00
2023-01-19T13:40:19.495Z,4.00
2023-01-19T13:42:46.916Z,0.70
2023-01-19T13:45:38.034Z,0.90
2023-01-19T13:48:07.704Z,1.35
2023-01-19T13:50:38.550Z,2.50
2023-01-19T13:53:20.466Z,2.30
2023-01-19T13:56:06.946Z,2.42
2023-01-19T13:58:33.431Z,4.57
2023-01-19T14:00:59.992Z,1.10
2023-01-19T14:03:26.652Z,6.07
2023-01-19T14:05:54.449Z,2.13
2023-01-19T14:08:22.317Z,4.15
2023-01-19T14:11:02.033Z,1.73
2023-01-19T14:13:34.238Z,3.33
2023-01-19T14:16:05.807Z,2.85
2023-01-19T14:18:33.987Z,1.35
2023-01-19T14:21:14.827Z,2.00
2023-01-19T14:23:51.973Z,2.08
2023-01-19T14:26:45.998Z,2.05
2023-01-19T14:29:18.449Z,1.95
2023-01-19T14:31:50.821Z,1.98
2023-01-19T14:34:52.702Z,3.70
2023-01-19T14:37:28.328Z,2.13
2023-01-19T14:40:08.069Z,1.75
2023-01-19T14:42:54.620Z,6.22
2023-01-19T14:45:28.863Z,3.65
2023-01-19T14:48:13.070Z,6.15
2023-01-19T14:50:51.056Z,1.42
2023-01-19T14:53:29.765Z,1.75
2023-01-19T14:56:02.469Z,7.18
2023-01-19T14:58:32.195Z,1.17
2023-01-19T15:00:59.005Z,3.67
2023-01-19T15:03:42.704Z,2.78
2023-01-19T15:06:14.598Z,5.40
2023-01-19T15:08:41.393Z,2.70
2023-01-19T15:11:13.778Z,1.00
2023-01-19T15:13:41.510Z,3.58
2023-01-19T15:16:08.965Z,3.58
2023-01-19T15:18:35.800Z,4.63
2023-01-19T15:21:03.304Z,2.58
2023-01-19T15:23:33.218Z,2.53
2023-01-19T15:26:01.860Z,1.40
2023-01-19T15:28:29.507Z,1.83
2023-01-19T15:30:57.504Z,1.48
2023-01-19T15:33:26.484Z,1.10
2023-01-19T15:35:53.379Z,0.82
2023-01-19T15:38:19.924Z,2.70
2023-01-19T15:40:51.143Z,1.25
2023-01-19T15:43:18.044Z,2.03
2023-01-19T15:45:50.631Z,2.08
2023-01-19T15:48:17.219Z,2.95
2023-01-19T15:50:44.865Z,1.35
2023-01-19T15:53:17.073Z,2.63
2023-01-19T15:55:44.406Z,2.40
2023-01-19T15:58:13.943Z,0.88
2023-01-19T16:00:41.052Z,0.93
2023-01-19T16:03:07.793Z,2.28
2023-01-19T16:05:42.497Z,1.30
2023-01-19T16:08:11.241Z,1.23
2023-01-19T16:10:37.985Z,1.15
2023-01-19T16:13:04.406Z,6.57
2023-01-19T16:15:30.823Z,2.83
2023-01-19T16:17:57.269Z,1.10
2023-01-19T16:20:23.711Z,3.65
2023-01-19T16:22:50.105Z,1.30
2023-01-19T16:25:16.600Z,1.33
2023-01-19T16:27:43.165Z,1.95
2023-01-19T16:30:12.390Z,2.47
2023-01-19T16:32:38.938Z,1.98
2023-01-19T16:35:05.859Z,2.83
2023-01-19T16:37:32.326Z,0.95
2023-01-19T16:39:58.781Z,4.28
2023-01-19T16:42:25.491Z,2.92
2023-01-19T16:44:51.926Z,1.70
2023-01-19T16:47:18.553Z,4.93
2023-01-19T16:49:45.011Z,3.40
2023-01-19T16:52:11.686Z,0.90
2023-01-19T16:54:41.196Z,0.50
2023-01-19T16:57:07.580Z,2.50
2023-01-19T16:59:34.046Z,1.27
2023-01-19T17:02:00.674Z,1.30
2023-01-19T17:04:27.571Z,1.70
2023-01-19T17:06:54.994Z,1.35
2023-01-19T17:09:21.487Z,2.35
2023-01-19T17:11:47.984Z,1.92
2023-01-19T17:14:17.737Z,4.22
2023-01-19T17:16:44.343Z,2.35
2023-01-19T17:19:15.131Z,2.00
2023-01-19T17:21:44.668Z,3.03
2023-01-19T17:24:11.043Z,2.33
2023-01-19T17:26:37.616Z,1.70
2023-01-19T17:29:06.439Z,2.30
2023-01-19T17:31:33.754Z,1.80
2023-01-19T17:34:00.579Z,2.28
2023-01-19T17:36:28.804Z,1.73
2023-01-19T17:38:57.686Z,2.90
2023-01-19T17:41:27.070Z,2.17
2023-01-19T17:43:54.176Z,8.07
2023-01-19T17:46:23.425Z,2.97
2023-01-19T17:48:58.268Z,3.55
2023-01-19T17:51:25.522Z,3.53
2023-01-19T17:53:53.207Z,2.88
2023-01-19T17:56:29.350Z,4.00
2023-01-19T17:58:56.793Z,2.40
2023-01-19T18:01:25.941Z,3.03
2023-01-19T18:03:53.517Z,6.53
2023-01-19T18:06:20.453Z,5.28
2023-01-19T18:08:47.825Z,5.25
2023-01-19T18:11:16.509Z,8.68
2023-01-19T18:13:45.390Z,2.78
2023-01-19T18:16:22.272Z,6.75
2023-01-19T18:18:49.702Z,10.05
2023-01-19T18:21:17.585Z,5.07
2023-01-19T18:23:45.101Z,8.45
2023-01-19T18:26:20.853Z,6.40
2023-01-19T18:28:48.291Z,9.00
2023-01-19T18:31:18.825Z,9.43
2023-01-19T18:33:47.623Z,7.82
2023-01-19T18:36:14.797Z,12.38
2023-01-19T18:38:41.966Z,16.75
2023-01-19T18:41:15.247Z,20.58
2023-01-19T18:43:42.450Z,12.55
2023-01-19T18:46:09.488Z,14.43
2023-01-19T18:48:37.731Z,9.75
2023-01-19T18:51:09.066Z,11.75
2023-01-19T18:53:36.402Z,12.60
2023-01-19T18:56:03.364Z,14.43
2023-01-19T18:58:31.698Z,12.45
2023-01-19T19:01:01.739Z,7.25
2023-01-19T19:03:28.789Z,17.33
2023-01-19T19:05:55.349Z,13.57
2023-01-19T19:08:22.460Z,14.75
2023-01-19T19:10:48.885Z,12.32
2023-01-19T19:13:16.849Z,14.57
2023-01-19T19:15:44.317Z,15.00
2023-01-19T19:18:13.529Z,17.92
2023-01-19T19:20:40.028Z,11.57
2023-01-19T19:23:06.452Z,20.50
2023-01-19T19:25:34.031Z,14.00
2023-01-19T19:28:00.553Z,14.45
2023-01-19T19:30:27.172Z,13.77
2023-01-19T19:32:55.951Z,11.18
2023-01-19T19:35:23.599Z,12.50
2023-01-19T19:37:50.043Z,10.38
2023-01-19T19:40:16.758Z,8.88
2023-01-19T19:42:43.201Z,9.40
2023-01-19T19:45:10.306Z,6.25
2023-01-19T19:47:36.713Z,5.03
2023-01-19T19:50:03.297Z,12.25
2023-01-19T19:52:29.773Z,6.43
2023-01-19T19:54:56.272Z,5.53
2023-01-19T19:57:22.786Z,7.25
2023-01-19T19:59:49.242Z,4.50
2023-01-19T20:02:15.669Z,8.68
2023-01-19T20:04:42.944Z,4.55
2023-01-19T20:07:09.582Z,4.90
2023-01-19T20:09:36.416Z,10.38
2023-01-19T20:12:02.885Z,5.18
2023-01-19T20:14:29.319Z,1.95
2023-01-19T20:16:55.738Z,2.22
2023-01-19T20:19:22.163Z,3.88
2023-01-19T20:21:48.720Z,2.17
2023-01-19T20:24:18.349Z,2.25
2023-01-19T20:26:48.165Z,3.10
2023-01-19T20:29:15.201Z,1.30
2023-01-19T20:31:44.895Z,1.52
2023-01-19T20:34:14.345Z,1.08
2023-01-19T20:36:41.550Z,1.10
2023-01-19T20:39:11.279Z,1.83
2023-01-19T20:41:43.484Z,1.75
2023-01-19T20:44:12.313Z,0.55
2023-01-19T20:46:39.340Z,2.38
2023-01-19T20:49:06.314Z,1.35
2023-01-19T20:51:33.036Z,1.27
2023-01-19T20:53:59.524Z,1.00
2023-01-19T20:56:25.927Z,2.08
2023-01-19T20:58:52.337Z,0.45
2023-01-19T21:01:21.796Z,1.35
2023-01-19T21:03:49.035Z,3.13
2023-01-19T21:06:16.300Z,0.73
2023-01-19T21:08:43.352Z,0.88
2023-01-19T21:11:09.979Z,1.17
2023-01-19T21:13:37.115Z,1.10
2023-01-19T21:16:04.072Z,2.08
2023-01-19T21:18:30.486Z,0.95
2023-01-19T21:20:57.568Z,1.90
2023-01-19T21:23:25.649Z,0.95
2023-01-19T21:25:54.068Z,1.33
2023-01-19T21:28:22.549Z,1.40
2023-01-19T21:30:49.886Z,1.25
2023-01-19T21:33:16.920Z,1.38
2023-01-19T21:35:53.898Z,1.80
2023-01-19T21:38:21.390Z,1.58
2023-01-19T21:40:48.097Z,1.55
2023-01-19T21:43:14.558Z,1.58
2023-01-19T21:45:43.079Z,2.78
2023-01-19T21:48:09.798Z,2.88
2023-01-19T21:50:36.281Z,3.63
2023-01-19T21:53:03.458Z,4.70
2023-01-19T21:55:29.984Z,3.28
2023-01-19T21:57:56.566Z,3.33
2023-01-19T22:00:23.079Z,2.72
2023-01-19T22:03:03.054Z,2.33
2023-01-19T22:05:30.229Z,2.40
2023-01-19T22:07:56.659Z,4.90
2023-01-19T22:10:23.099Z,3.10
2023-01-19T22:12:49.535Z,4.38
2023-01-19T22:15:16.057Z,3.00
2023-01-19T22:17:42.498Z,3.45
2023-01-19T22:20:09.575Z,3.10
2023-01-19T22:22:35.982Z,6.32
2023-01-19T22:25:02.450Z,4.40
2023-01-19T22:27:32.830Z,3.10
2023-01-19T22:29:59.847Z,4.00
2023-01-19T22:32:26.366Z,3.88
2023-01-19T22:34:52.761Z,4.88
2023-01-19T22:37:19.237Z,5.63
2023-01-19T22:39:45.632Z,3.47
2023-01-19T22:42:12.017Z,6.25
2023-01-19T22:44:38.509Z,3.50
2023-01-19T22:47:04.976Z,5.00
2023-01-19T22:49:31.413Z,4.88
2023-01-19T22:51:58.125Z,3.83
2023-01-19T22:54:24.515Z,4.55
2023-01-19T22:56:50.883Z,4.40
2023-01-19T22:59:17.337Z,5.05
2023-01-19T23:01:44.357Z,4.78
2023-01-19T23:04:14.533Z,3.67
2023-01-19T23:06:41.999Z,4.30
2023-01-19T23:09:13.523Z,3.00
2023-01-19T23:11:42.153Z,3.70
2023-01-19T23:14:13.743Z,3.92
2023-01-19T23:16:40.278Z,4.07
2023-01-19T23:19:06.992Z,3.67
2023-01-19T23:21:33.851Z,3.90
2023-01-19T23:24:02.485Z,3.70
2023-01-19T23:26:38.165Z,6.82
2023-01-19T23:29:15.144Z,4.43
2023-01-19T23:31:47.487Z,4.55
2023-01-19T23:34:14.692Z,3.00
2023-01-19T23:36:42.833Z,3.50
2023-01-19T23:39:21.133Z,5.75
2023-01-19T23:41:48.062Z,4.63
2023-01-19T23:44:14.858Z,4.05
2023-01-19T23:46:41.587Z,3.25
2023-01-19T23:49:08.078Z,3.17
2023-01-19T23:51:34.848Z,5.10
2023-01-19T23:54:02.177Z,3.97
2023-01-19T23:56:31.721Z,4.75
2023-01-19T23:59:01.478Z,4.35
